SWA2016 PHKO-KSMF
Flight info
| Callsign | SWA2016 |
|---|---|
| Flight time | N/A |
| Altitude | 37000 |
| Route | V5 MYNAH V11 UPP CLUTS R465 CINNY PYE |
| Aircraft | B38M/M-SADE2E3GHIJ4J7P2RWZ/LB1D1 |
Departure
| Time | N/A |
|---|---|
| Airport | Ellison Onizuka Kona International Airport at Keāhole (PHKO) |
Arrival
| Time | 2026-05-07 01:48 |
|---|---|
| Airport | Sacramento International Airport (KSMF) |
| Time | Latitude | Longitude | Altitude | Speed | Heading |
|---|---|---|---|---|---|
| 2026-05-07 01:01 | 35.84036 | -125.78026 | 37000 ft | 448 kts | 67° |
| 2026-05-07 01:01 | 35.85223 | -125.74535 | 37001 ft | 448 kts | 67° |
| 2026-05-07 01:02 | 35.87623 | -125.67461 | 37000 ft | 448 kts | 67° |
| 2026-05-07 01:02 | 35.90024 | -125.60371 | 36999 ft | 448 kts | 67° |
| 2026-05-07 01:03 | 35.92418 | -125.53284 | 37000 ft | 448 kts | 67° |
| 2026-05-07 01:03 | 35.94808 | -125.46194 | 37002 ft | 448 kts | 67° |
| 2026-05-07 01:04 | 35.97194 | -125.39096 | 37000 ft | 447 kts | 67° |
| 2026-05-07 01:04 | 35.99577 | -125.31993 | 37000 ft | 447 kts | 68° |
| 2026-05-07 01:05 | 36.01954 | -125.24891 | 37001 ft | 448 kts | 68° |
| 2026-05-07 01:05 | 36.04326 | -125.17786 | 37000 ft | 448 kts | 68° |
| 2026-05-07 01:06 | 36.06695 | -125.10672 | 37000 ft | 448 kts | 68° |
| 2026-05-07 01:06 | 36.09059 | -125.03557 | 36999 ft | 447 kts | 68° |
| 2026-05-07 01:07 | 36.11422 | -124.96431 | 37001 ft | 448 kts | 68° |
| 2026-05-07 01:07 | 36.13778 | -124.89305 | 37000 ft | 448 kts | 68° |
| 2026-05-07 01:08 | 36.16131 | -124.82178 | 37000 ft | 448 kts | 68° |
| 2026-05-07 01:08 | 36.19125 | -124.75501 | 36981 ft | 445 kts | 45° |
| 2026-05-07 01:09 | 36.23886 | -124.70568 | 36981 ft | 447 kts | 39° |
| 2026-05-07 01:09 | 36.28727 | -124.65806 | 37000 ft | 448 kts | 38° |
| 2026-05-07 01:10 | 36.33628 | -124.61045 | 36999 ft | 447 kts | 38° |
| 2026-05-07 01:10 | 36.38530 | -124.56287 | 37000 ft | 448 kts | 38° |
| 2026-05-07 01:11 | 36.43433 | -124.51520 | 37000 ft | 448 kts | 38° |
| 2026-05-07 01:11 | 36.48333 | -124.46748 | 37001 ft | 448 kts | 38° |
| 2026-05-07 01:12 | 36.53231 | -124.41971 | 37000 ft | 448 kts | 38° |
| 2026-05-07 01:12 | 36.58125 | -124.37189 | 37000 ft | 447 kts | 38° |
| 2026-05-07 01:13 | 36.63020 | -124.32399 | 36999 ft | 448 kts | 38° |
| 2026-05-07 01:13 | 36.67907 | -124.27608 | 37000 ft | 448 kts | 38° |
| 2026-05-07 01:14 | 36.72803 | -124.22800 | 37000 ft | 448 kts | 38° |
| 2026-05-07 01:14 | 36.77694 | -124.17990 | 37000 ft | 448 kts | 38° |
| 2026-05-07 01:15 | 36.82547 | -124.13209 | 37000 ft | 447 kts | 38° |
| 2026-05-07 01:15 | 36.87455 | -124.08366 | 37007 ft | 448 kts | 38° |
| 2026-05-07 01:16 | 36.92309 | -124.03567 | 37000 ft | 447 kts | 38° |
| 2026-05-07 01:16 | 36.97191 | -123.98733 | 37000 ft | 448 kts | 38° |
| 2026-05-07 01:16 | 36.99631 | -123.96313 | 36497 ft | 449 kts | 37° |
| 2026-05-07 01:17 | 37.02074 | -123.93894 | 36682 ft | 448 kts | 37° |
| 2026-05-07 01:17 | 37.04521 | -123.91460 | 36888 ft | 450 kts | 37° |
| 2026-05-07 01:17 | 37.06976 | -123.89020 | 37073 ft | 451 kts | 37° |
| 2026-05-07 01:17 | 37.09441 | -123.86568 | 37201 ft | 453 kts | 37° |
| 2026-05-07 01:18 | 37.11913 | -123.84107 | 37205 ft | 456 kts | 37° |
| 2026-05-07 01:18 | 37.16881 | -123.79154 | 37200 ft | 456 kts | 37° |
| 2026-05-07 01:19 | 37.21844 | -123.74198 | 37202 ft | 456 kts | 37° |
| 2026-05-07 01:19 | 37.26815 | -123.69226 | 37206 ft | 458 kts | 37° |
| 2026-05-07 01:20 | 37.31789 | -123.64240 | 37191 ft | 456 kts | 37° |
| 2026-05-07 01:20 | 37.36751 | -123.59259 | 37181 ft | 457 kts | 36° |
| 2026-05-07 01:21 | 37.41705 | -123.54277 | 37187 ft | 456 kts | 36° |
| 2026-05-07 01:21 | 37.46665 | -123.49280 | 37194 ft | 457 kts | 37° |
| 2026-05-07 01:22 | 37.51622 | -123.44279 | 37179 ft | 457 kts | 37° |
| 2026-05-07 01:22 | 37.56583 | -123.39264 | 37189 ft | 458 kts | 36° |
| 2026-05-07 01:23 | 37.61549 | -123.34234 | 37182 ft | 458 kts | 36° |
| 2026-05-07 01:23 | 37.66510 | -123.29201 | 37179 ft | 458 kts | 37° |
| 2026-05-07 01:24 | 37.71470 | -123.24160 | 37172 ft | 458 kts | 37° |
| 2026-05-07 01:24 | 37.76430 | -123.19112 | 37177 ft | 458 kts | 37° |
| 2026-05-07 01:25 | 37.81360 | -123.14082 | 36675 ft | 451 kts | 36° |
| 2026-05-07 01:25 | 37.82989 | -123.12420 | 35928 ft | 457 kts | 37° |
| 2026-05-07 01:25 | 37.85467 | -123.09888 | 35305 ft | 455 kts | 37° |
| 2026-05-07 01:25 | 37.87917 | -123.07382 | 34620 ft | 453 kts | 37° |
| 2026-05-07 01:26 | 37.90385 | -123.04857 | 33537 ft | 460 kts | 37° |
| 2026-05-07 01:26 | 37.92870 | -123.02311 | 32896 ft | 456 kts | 37° |
| 2026-05-07 01:26 | 37.95330 | -122.99790 | 32087 ft | 456 kts | 37° |
| 2026-05-07 01:26 | 37.97810 | -122.97247 | 31109 ft | 460 kts | 37° |
| 2026-05-07 01:27 | 38.00301 | -122.94688 | 30287 ft | 461 kts | 38° |
| 2026-05-07 01:27 | 38.02778 | -122.92129 | 29339 ft | 460 kts | 39° |
| 2026-05-07 01:27 | 38.04973 | -122.89131 | 28093 ft | 470 kts | 53° |
| 2026-05-07 01:27 | 38.06507 | -122.85466 | 27171 ft | 473 kts | 67° |
| 2026-05-07 01:28 | 38.07318 | -122.81437 | 26487 ft | 471 kts | 81° |
| 2026-05-07 01:28 | 38.07428 | -122.77289 | 25797 ft | 469 kts | 89° |
| 2026-05-07 01:28 | 38.07358 | -122.73150 | 25013 ft | 469 kts | 90° |
| 2026-05-07 01:28 | 38.07238 | -122.69020 | 24270 ft | 467 kts | 90° |
| 2026-05-07 01:29 | 38.07095 | -122.64912 | 23525 ft | 465 kts | 90° |
| 2026-05-07 01:29 | 38.06936 | -122.60815 | 22701 ft | 463 kts | 91° |
| 2026-05-07 01:29 | 38.06770 | -122.56753 | 21978 ft | 459 kts | 91° |
| 2026-05-07 01:29 | 38.06604 | -122.52734 | 21281 ft | 454 kts | 91° |
| 2026-05-07 01:30 | 38.06436 | -122.48748 | 20618 ft | 449 kts | 91° |
| 2026-05-07 01:30 | 38.06271 | -122.44821 | 19970 ft | 444 kts | 91° |
| 2026-05-07 01:30 | 38.06105 | -122.40931 | 19390 ft | 438 kts | 92° |
| 2026-05-07 01:30 | 38.05940 | -122.37072 | 18539 ft | 440 kts | 92° |
| 2026-05-07 01:31 | 38.05773 | -122.33231 | 17904 ft | 432 kts | 91° |
| 2026-05-07 01:31 | 38.05609 | -122.29459 | 17271 ft | 425 kts | 92° |
| 2026-05-07 01:31 | 38.05445 | -122.25715 | 16439 ft | 425 kts | 92° |
| 2026-05-07 01:31 | 38.05281 | -122.22008 | 15777 ft | 416 kts | 92° |
| 2026-05-07 01:32 | 38.05120 | -122.18388 | 15082 ft | 409 kts | 93° |
| 2026-05-07 01:32 | 38.04960 | -122.14817 | 14468 ft | 404 kts | 93° |
| 2026-05-07 01:32 | 38.04802 | -122.11311 | 13912 ft | 402 kts | 93° |
| 2026-05-07 01:32 | 38.04904 | -122.07750 | 13183 ft | 400 kts | 79° |
| 2026-05-07 01:33 | 38.05835 | -122.04499 | 12472 ft | 395 kts | 60° |
| 2026-05-07 01:33 | 38.07516 | -122.01850 | 11946 ft | 379 kts | 41° |
| 2026-05-07 01:33 | 38.09538 | -121.99820 | 11817 ft | 353 kts | 38° |
| 2026-05-07 01:33 | 38.11417 | -121.97971 | 11648 ft | 342 kts | 37° |
| 2026-05-07 01:34 | 38.13304 | -121.96136 | 11414 ft | 332 kts | 37° |
| 2026-05-07 01:34 | 38.15094 | -121.94410 | 11249 ft | 323 kts | 37° |
| 2026-05-07 01:34 | 38.16863 | -121.92711 | 11076 ft | 315 kts | 36° |
| 2026-05-07 01:34 | 38.18588 | -121.91055 | 10920 ft | 306 kts | 37° |
| 2026-05-07 01:35 | 38.20264 | -121.89449 | 10776 ft | 298 kts | 36° |
| 2026-05-07 01:35 | 38.21890 | -121.87889 | 10638 ft | 289 kts | 36° |
| 2026-05-07 01:35 | 38.23470 | -121.86375 | 10573 ft | 279 kts | 36° |
| 2026-05-07 01:35 | 38.25004 | -121.84902 | 10543 ft | 276 kts | 36° |
| 2026-05-07 01:36 | 38.26521 | -121.83445 | 10400 ft | 270 kts | 36° |
| 2026-05-07 01:36 | 38.28007 | -121.82016 | 10182 ft | 266 kts | 36° |
| 2026-05-07 01:36 | 38.29471 | -121.80610 | 9951 ft | 262 kts | 36° |
| 2026-05-07 01:36 | 38.30927 | -121.79208 | 9642 ft | 265 kts | 36° |
| 2026-05-07 01:37 | 38.32408 | -121.77784 | 9321 ft | 269 kts | 36° |
| 2026-05-07 01:37 | 38.33903 | -121.76346 | 9036 ft | 270 kts | 36° |
| 2026-05-07 01:37 | 38.35401 | -121.74905 | 8755 ft | 270 kts | 36° |
| 2026-05-07 01:37 | 38.37018 | -121.73729 | 8407 ft | 269 kts | 15° |
| 2026-05-07 01:38 | 38.38846 | -121.73268 | 8106 ft | 267 kts | 10° |
| 2026-05-07 01:38 | 38.40661 | -121.72841 | 7851 ft | 264 kts | 10° |
| 2026-05-07 01:38 | 38.42460 | -121.72428 | 7598 ft | 261 kts | 9° |
| 2026-05-07 01:38 | 38.44241 | -121.72025 | 7321 ft | 259 kts | 9° |
| 2026-05-07 01:39 | 38.46010 | -121.71627 | 7042 ft | 257 kts | 9° |
| 2026-05-07 01:39 | 38.47771 | -121.71235 | 6775 ft | 257 kts | 9° |
| 2026-05-07 01:39 | 38.49524 | -121.70843 | 6512 ft | 254 kts | 9° |
| 2026-05-07 01:39 | 38.51266 | -121.70454 | 6215 ft | 254 kts | 9° |
| 2026-05-07 01:40 | 38.53001 | -121.70067 | 5911 ft | 253 kts | 9° |
| 2026-05-07 01:40 | 38.54724 | -121.69683 | 5646 ft | 251 kts | 9° |
| 2026-05-07 01:40 | 38.56439 | -121.69300 | 5366 ft | 250 kts | 9° |
| 2026-05-07 01:40 | 38.58141 | -121.68921 | 5110 ft | 247 kts | 8° |
| 2026-05-07 01:41 | 38.59830 | -121.68546 | 4844 ft | 245 kts | 8° |
| 2026-05-07 01:41 | 38.61512 | -121.68247 | 4541 ft | 244 kts | 359° |
| 2026-05-07 01:41 | 38.63196 | -121.68391 | 4255 ft | 241 kts | 353° |
| 2026-05-07 01:41 | 38.64846 | -121.68702 | 4035 ft | 237 kts | 349° |
| 2026-05-07 01:42 | 38.66453 | -121.69021 | 3926 ft | 229 kts | 349° |
| 2026-05-07 01:42 | 38.67992 | -121.69324 | 3837 ft | 219 kts | 349° |
| 2026-05-07 01:42 | 38.69448 | -121.69606 | 3739 ft | 210 kts | 349° |
| 2026-05-07 01:42 | 38.70888 | -121.69875 | 3620 ft | 211 kts | 351° |
| 2026-05-07 01:43 | 38.72386 | -121.69924 | 3515 ft | 218 kts | 358° |
| 2026-05-07 01:43 | 38.73900 | -121.69888 | 3419 ft | 214 kts | 358° |
| 2026-05-07 01:43 | 38.75357 | -121.69865 | 3325 ft | 205 kts | 358° |
| 2026-05-07 01:43 | 38.76732 | -121.69766 | 3233 ft | 191 kts | 6° |
| 2026-05-07 01:44 | 38.77964 | -121.69270 | 3024 ft | 184 kts | 24° |
| 2026-05-07 01:44 | 38.79004 | -121.68323 | 2724 ft | 185 kts | 45° |
| 2026-05-07 01:44 | 38.79753 | -121.66983 | 2438 ft | 185 kts | 68° |
| 2026-05-07 01:44 | 38.80069 | -121.65419 | 2245 ft | 180 kts | 88° |
| 2026-05-07 01:45 | 38.79982 | -121.63846 | 2116 ft | 173 kts | 107° |
| 2026-05-07 01:45 | 38.79551 | -121.62479 | 2002 ft | 160 kts | 124° |
| 2026-05-07 01:45 | 38.78878 | -121.61399 | 1841 ft | 152 kts | 139° |
| 2026-05-07 01:45 | 38.78030 | -121.60615 | 1571 ft | 149 kts | 154° |
| 2026-05-07 01:46 | 38.77071 | -121.60149 | 1301 ft | 148 kts | 167° |
| 2026-05-07 01:46 | 38.76058 | -121.59996 | 1086 ft | 148 kts | 180° |
| 2026-05-07 01:46 | 38.75029 | -121.60067 | 857 ft | 147 kts | 182° |
| 2026-05-07 01:46 | 38.73998 | -121.60089 | 703 ft | 149 kts | 179° |
| 2026-05-07 01:47 | 38.72949 | -121.60074 | 517 ft | 152 kts | 181° |
| 2026-05-07 01:47 | 38.71896 | -121.60102 | 323 ft | 151 kts | 178° |
| 2026-05-07 01:47 | 38.70852 | -121.60109 | 104 ft | 149 kts | 179° |
| 2026-05-07 01:47 | 38.69876 | -121.60123 | 38 ft | 123 kts | 180° |
| 2026-05-07 01:48 | 38.69265 | -121.60133 | 32 ft | 47 kts | 180° |
| 2026-05-07 01:48 | 38.69083 | -121.60117 | 38 ft | 18 kts | 145° |
| 2026-05-07 01:48 | 38.69057 | -121.59948 | 35 ft | 21 kts | 88° |
| 2026-05-07 01:48 | 38.69166 | -121.59877 | 35 ft | 21 kts | 356° |
| 2026-05-07 01:49 | 38.69211 | -121.59780 | 35 ft | 16 kts | 89° |
| 2026-05-07 01:49 | 38.69234 | -121.59621 | 35 ft | 20 kts | 59° |
| 2026-05-07 01:49 | 38.69332 | -121.59488 | 34 ft | 22 kts | 45° |
| 2026-05-07 01:49 | 38.69451 | -121.59439 | 36 ft | 18 kts | 307° |
| 2026-05-07 01:50 | 38.69479 | -121.59584 | 37 ft | 16 kts | 319° |
| 2026-05-07 01:50 | 38.69595 | -121.59602 | 37 ft | 19 kts | 359° |
| 2026-05-07 01:50 | 38.69695 | -121.59582 | 37 ft | 13 kts | 78° |
| 2026-05-07 01:50 | 38.69663 | -121.59533 | 36 ft | 9 kts | 156° |
| 2026-05-07 01:51 | 38.69631 | -121.59514 | 37 ft | 0 kts | 152° |
| 2026-05-07 01:51 | 38.69626 | -121.59510 | 37 ft | 1 kts | 154° |
| 2026-05-07 01:51 | 38.69625 | -121.59510 | 37 ft | 0 kts | 154° |